Time;durP1;ratioP1;P1;durP2;ratioP2;P2;SDS_P1;SDS_P2;PMS_P1;PMS_P2;Temp;Humidity;BMP_temperature;BMP_pressure;BME280_temperature;BME280_humidity;BME280_pressure;Samples;Min_cycle;Max_cycle;Signal;HPM_P1;HPM_P2
2024/04/13 00:01:44;;;;;;;1.63;1.52;;;;;;;5.53;74.61;98963.97;5561225;25;19996;-65
2024/04/13 00:04:10;;;;;;;2.25;1.55;;;;;;;5.47;74.31;98961.22;5561277;25;20005;-64
2024/04/13 00:06:37;;;;;;;3.70;2.53;;;;;;;5.45;74.27;98972.97;5561316;25;20000;-65
2024/04/13 00:09:04;;;;;;;3.40;2.08;;;;;;;5.43;74.55;98975.00;5559624;25;20366;-66
2024/04/13 00:11:30;;;;;;;2.10;1.90;;;;;;;5.39;74.29;98963.31;5561140;25;20451;-64
2024/04/13 00:13:56;;;;;;;5.43;2.95;;;;;;;5.37;74.46;98968.75;5559398;25;20008;-64
2024/04/13 00:16:22;;;;;;;3.28;2.35;;;;;;;5.34;73.46;98965.75;5560961;25;20001;-64
2024/04/13 00:18:48;;;;;;;4.50;2.58;;;;;;;5.31;73.54;98967.00;5559385;25;19996;-64
2024/04/13 00:21:14;;;;;;;2.88;2.30;;;;;;;5.29;73.06;98979.53;5561001;25;20453;-63
2024/04/13 00:23:42;;;;;;;3.03;2.17;;;;;;;5.26;73.03;98979.94;5559123;25;20346;-63
2024/04/13 00:26:09;;;;;;;2.63;2.00;;;;;;;5.23;72.30;98986.47;5560715;25;20303;-64
2024/04/13 00:28:34;;;;;;;3.00;1.77;;;;;;;5.22;71.61;98986.66;5561033;25;19996;-64
2024/04/13 00:31:02;;;;;;;3.47;2.35;;;;;;;5.20;71.73;98984.22;5559020;25;20012;-65
2024/04/13 00:33:29;;;;;;;3.38;2.30;;;;;;;5.16;72.10;98972.53;5558902;25;20517;-64
2024/04/13 00:36:00;;;;;;;2.75;1.92;;;;;;;5.15;70.81;98978.03;5558829;25;20000;-65
2024/04/13 00:38:29;;;;;;;6.25;2.38;;;;;;;5.15;71.80;98975.41;5558728;25;20004;-64
2024/04/13 00:40:57;;;;;;;4.20;2.58;;;;;;;5.09;72.03;98976.22;5560443;25;20457;-65
2024/04/13 00:43:23;;;;;;;3.63;2.38;;;;;;;5.03;72.34;98980.53;5560719;25;20061;-64
2024/04/13 00:45:48;;;;;;;5.18;3.40;;;;;;;5.04;72.71;98979.50;5560349;25;20001;-64
2024/04/13 00:48:18;;;;;;;4.90;2.55;;;;;;;4.99;73.31;98974.88;5560377;25;20029;-64
2024/04/13 00:50:47;;;;;;;3.83;2.83;;;;;;;4.95;73.76;98983.41;5558572;25;20004;-63
2024/04/13 00:53:16;;;;;;;4.20;2.60;;;;;;;4.93;73.97;98973.09;5560196;25;19997;-63
2024/04/13 00:55:43;;;;;;;3.67;3.30;;;;;;;4.94;74.66;98976.50;5563337;25;20024;-65
2024/04/13 00:58:11;;;;;;;2.58;2.10;;;;;;;4.91;75.22;98972.50;5562521;25;20016;-64
2024/04/13 01:00:41;;;;;;;2.10;1.90;;;;;;;4.90;75.84;98986.63;5531104;25;20009;-63
2024/04/13 01:03:08;;;;;;;2.63;2.10;;;;;;;4.85;75.82;98977.78;5562457;25;20011;-64
2024/04/13 01:05:34;;;;;;;3.25;1.75;;;;;;;4.78;76.88;98978.63;5562373;25;20042;-65
2024/04/13 01:08:01;;;;;;;3.35;1.88;;;;;;;4.77;77.08;98982.25;5564242;25;19997;-65
2024/04/13 01:10:27;;;;;;;2.08;1.60;;;;;;;4.74;77.59;98984.50;5563737;25;20048;-65
2024/04/13 01:12:53;;;;;;;2.65;1.80;;;;;;;4.69;77.80;98985.13;5531181;25;20072;-65
2024/04/13 01:15:19;;;;;;;2.42;2.10;;;;;;;4.67;77.60;98983.72;5562014;25;20294;-64
2024/04/13 01:17:46;;;;;;;2.65;1.90;;;;;;;4.66;76.38;98979.50;5562414;25;20334;-65
2024/04/13 01:20:13;;;;;;;3.83;2.45;;;;;;;4.64;75.54;98984.94;5562117;25;20001;-63
2024/04/13 01:22:42;;;;;;;4.43;2.50;;;;;;;4.64;75.55;98976.25;5562475;25;20001;-65
2024/04/13 01:25:09;;;;;;;3.05;2.20;;;;;;;4.58;76.07;98975.28;5563652;25;20015;-64
2024/04/13 01:27:36;;;;;;;5.93;2.50;;;;;;;4.59;75.15;98978.69;5530880;25;20007;-64
2024/04/13 01:30:03;;;;;;;4.93;2.60;;;;;;;4.54;75.02;98971.47;5563500;25;20001;-65
2024/04/13 01:32:30;;;;;;;1.98;1.63;;;;;;;4.53;74.57;98969.88;5543786;25;20008;-65
2024/04/13 01:35:16;;;;;;;4.43;2.20;;;;;;;4.51;74.73;98964.00;5546002;25;21669;-64
2024/04/13 01:37:45;;;;;;;3.58;1.67;;;;;;;4.46;75.02;98969.88;5546190;25;20015;-64
2024/04/13 01:40:11;;;;;;;3.22;2.03;;;;;;;4.40;75.37;98962.81;5542463;25;20001;-65
2024/04/13 01:42:39;;;;;;;1.60;1.23;;;;;;;4.36;75.77;98969.50;5542378;25;20486;-66
2024/04/13 01:45:05;;;;;;;3.03;1.40;;;;;;;4.33;75.74;98973.34;5541703;25;20004;-64
2024/04/13 01:47:31;;;;;;;2.50;1.30;;;;;;;4.28;76.05;98974.97;5544446;25;19998;-65
2024/04/13 01:49:57;;;;;;;1.75;1.50;;;;;;;4.24;76.09;98979.03;5540162;25;20020;-64
2024/04/13 01:52:23;;;;;;;3.55;1.60;;;;;;;4.20;76.14;98975.19;5546973;25;20005;-65
2024/04/13 01:54:52;;;;;;;1.60;1.42;;;;;;;4.13;77.04;98969.19;5562917;25;20068;-63
2024/04/13 01:57:18;;;;;;;1.77;1.67;;;;;;;4.10;76.68;98971.19;5563300;25;19992;-65
2024/04/13 01:59:45;;;;;;;3.47;1.90;;;;;;;4.07;76.76;98973.44;5563081;25;19997;-64
2024/04/13 02:02:11;;;;;;;2.83;2.10;;;;;;;4.05;77.01;98972.81;5561604;25;19993;-65
2024/04/13 02:04:37;;;;;;;3.47;2.28;;;;;;;4.02;76.89;98973.22;5562454;25;20358;-64
2024/04/13 02:07:05;;;;;;;5.40;2.95;;;;;;;4.01;76.42;98975.03;5531029;25;19997;-65
2024/04/13 02:09:33;;;;;;;9.75;3.00;;;;;;;4.02;76.12;98976.66;5561783;25;19993;-65
2024/04/13 02:11:59;;;;;;;2.00;1.73;;;;;;;4.06;75.91;98977.06;5562909;25;20012;-65
2024/04/13 02:14:25;;;;;;;2.58;1.60;;;;;;;4.08;74.91;98981.06;5561036;25;19997;-65
2024/04/13 02:16:52;;;;;;;3.08;2.40;;;;;;;4.09;74.80;98979.28;5562546;25;20042;-65
2024/04/13 02:19:39;;;;;;;3.60;2.55;;;;;;;4.11;74.86;98985.09;5561273;25;19997;-64
2024/04/13 02:22:05;;;;;;;2.03;1.83;;;;;;;4.12;74.09;98981.50;5562873;25;20001;-65
2024/04/13 02:24:31;;;;;;;3.28;1.90;;;;;;;4.10;74.73;98980.88;5562848;25;19997;-65
2024/04/13 02:26:57;;;;;;;3.30;2.03;;;;;;;4.09;74.98;98979.28;5560759;25;20013;-64
2024/04/13 02:29:25;;;;;;;3.80;1.73;;;;;;;4.09;75.24;98985.31;5562524;25;20469;-65
2024/04/13 02:31:51;;;;;;;4.60;1.73;;;;;;;4.10;75.02;98986.94;5560702;25;20526;-64
2024/04/13 02:34:17;;;;;;;2.88;1.80;;;;;;;4.17;75.26;98988.72;5562590;25;20353;-64
2024/04/13 02:36:44;;;;;;;2.28;1.70;;;;;;;4.30;75.47;98991.34;5562636;25;20016;-65
2024/04/13 02:39:09;;;;;;;3.40;2.00;;;;;;;4.47;74.99;98997.75;5562730;25;20466;-64
2024/04/13 02:41:35;;;;;;;2.67;1.60;;;;;;;4.67;74.02;98992.41;5560926;25;20450;-64
2024/04/13 02:44:01;;;;;;;1.52;1.42;;;;;;;4.91;73.33;98992.69;5562754;25;19997;-65
2024/04/13 02:46:27;;;;;;;3.78;2.28;;;;;;;5.14;72.55;98997.41;5562274;25;20011;-65
2024/04/13 02:48:53;;;;;;;2.88;1.80;;;;;;;5.37;71.75;99008.19;5529573;25;19993;-63
2024/04/13 02:51:19;;;;;;;1.85;1.60;;;;;;;5.58;70.63;98998.34;5562289;25;20036;-65
2024/04/13 02:53:44;;;;;;;3.60;1.60;;;;;;;5.77;70.07;99007.09;5560499;25;19993;-65
2024/04/13 02:56:13;;;;;;;2.83;1.67;;;;;;;5.97;69.06;99006.94;5562238;25;20034;-63
2024/04/13 02:58:39;;;;;;;2.13;1.65;;;;;;;6.16;68.66;99005.16;5562523;25;19997;-65
2024/04/13 03:01:05;;;;;;;1.70;1.55;;;;;;;6.28;67.51;99004.19;5562257;25;20391;-64
2024/04/13 03:03:31;;;;;;;2.55;1.55;;;;;;;6.48;66.98;99011.09;5562458;25;20477;-65
2024/04/13 03:06:02;;;;;;;2.35;1.60;;;;;;;6.70;66.63;99006.97;5560353;25;20009;-66
2024/04/13 03:08:28;;;;;;;1.70;1.60;;;;;;;6.93;65.71;99008.91;5562410;25;20327;-64
2024/04/13 03:10:58;;;;;;;2.88;2.40;;;;;;;7.08;64.86;99007.72;5529421;25;20005;-65
2024/04/13 03:13:24;;;;;;;2.05;1.85;;;;;;;7.22;64.25;99007.31;5560392;25;20004;-65
2024/04/13 03:16:17;;;;;;;3.15;1.67;;;;;;;7.36;63.91;99007.13;5560132;25;19997;-65
2024/04/13 03:18:44;;;;;;;2.67;1.88;;;;;;;7.48;63.73;99007.97;5557967;25;19992;-66
2024/04/13 03:21:10;;;;;;;2.45;1.50;;;;;;;7.49;62.27;99006.91;5560451;25;19992;-66
2024/04/13 03:23:37;;;;;;;1.58;1.48;;;;;;;7.60;62.58;99013.25;5529248;25;20069;-65
2024/04/13 03:26:06;;;;;;;1.67;1.40;;;;;;;7.79;61.72;99001.56;5560023;25;20007;-66
2024/04/13 03:28:35;;;;;;;3.20;1.48;;;;;;;8.01;61.21;99017.66;5561690;25;20068;-64
2024/04/13 03:31:02;;;;;;;4.47;1.50;;;;;;;8.23;60.61;99009.13;5561715;25;19997;-66
2024/04/13 03:33:28;;;;;;;2.85;1.80;;;;;;;8.37;59.84;99006.03;5528744;25;20465;-65
2024/04/13 03:35:58;;;;;;;2.33;1.60;;;;;;;8.43;59.81;99006.97;5561689;25;19997;-64
2024/04/13 03:38:25;;;;;;;2.75;1.60;;;;;;;8.60;59.25;99007.84;5561437;25;20065;-65
2024/04/13 03:41:01;;;;;;;2.58;1.50;;;;;;;8.75;58.51;99003.91;5559991;25;20383;-66
2024/04/13 03:43:27;;;;;;;2.85;1.55;;;;;;;8.91;58.34;99012.94;5559641;25;20001;-65
2024/04/13 03:45:53;;;;;;;4.10;1.95;;;;;;;8.93;57.32;99006.38;5559518;25;20016;-66
2024/04/13 03:48:20;;;;;;;3.17;1.85;;;;;;;9.04;57.39;99010.81;5559567;25;20003;-66
2024/04/13 03:50:46;;;;;;;4.07;1.63;;;;;;;9.14;57.02;99001.47;5559204;25;19996;-65
2024/04/13 03:53:13;;;;;;;1.50;1.40;;;;;;;9.26;56.98;99007.50;5559369;25;20001;-66
2024/04/13 03:55:38;;;;;;;2.90;1.80;;;;;;;9.46;56.02;99001.75;5559231;25;19996;-65
2024/04/13 03:58:04;;;;;;;1.88;1.60;;;;;;;9.67;55.46;99008.19;5528514;25;19993;-65
2024/04/13 04:00:31;;;;;;;3.72;1.73;;;;;;;9.67;55.01;99003.69;5561146;25;20000;-65
2024/04/13 04:02:56;;;;;;;3.60;1.75;;;;;;;9.57;54.59;99013.31;5559392;25;19988;-66
2024/04/13 04:05:22;;;;;;;4.63;1.77;;;;;;;9.66;54.93;99010.03;5560483;25;20071;-66
2024/04/13 04:07:48;;;;;;;4.13;1.95;;;;;;;9.75;54.44;99008.59;5560738;25;20073;-63
2024/04/13 04:10:16;;;;;;;3.00;1.80;;;;;;;9.82;53.96;99016.34;5560518;25;20011;-64
2024/04/13 04:12:43;;;;;;;3.58;1.70;;;;;;;9.81;53.64;99017.41;5561329;25;20001;-65
2024/04/13 04:15:09;;;;;;;1.70;1.60;;;;;;;9.80;53.72;99025.59;5558901;25;20036;-65
2024/04/13 04:17:34;;;;;;;3.95;1.80;;;;;;;9.89;53.54;99019.66;5561086;25;20045;-65
2024/04/13 04:20:00;;;;;;;7.07;2.60;;;;;;;10.05;52.95;99017.22;5560856;25;20001;-66
2024/04/13 04:22:29;;;;;;;4.25;2.00;;;;;;;10.01;52.45;99017.72;5560588;25;20345;-65
2024/04/13 04:24:54;;;;;;;3.15;1.90;;;;;;;10.06;52.36;99017.00;5558623;25;20012;-65
2024/04/13 04:27:20;;;;;;;4.55;2.40;;;;;;;9.94;52.09;99013.63;5560683;25;20041;-66
2024/04/13 04:29:49;;;;;;;3.53;2.30;;;;;;;9.85;52.96;99015.88;5563626;25;20469;-65
2024/04/13 04:32:16;;;;;;;3.08;2.33;;;;;;;9.84;53.20;99014.28;5562522;25;20005;-65
2024/04/13 04:34:42;;;;;;;4.10;2.50;;;;;;;9.79;53.60;99011.53;5563591;25;20033;-65
2024/04/13 04:37:08;;;;;;;3.45;2.65;;;;;;;9.56;54.57;99009.88;5564003;25;19997;-65
2024/04/13 04:39:33;;;;;;;4.05;2.50;;;;;;;9.57;53.99;99015.97;5564142;25;19997;-64
2024/04/13 04:41:59;;;;;;;3.45;2.33;;;;;;;9.58;54.07;99017.56;5562432;25;20045;-66
2024/04/13 04:44:25;;;;;;;3.78;2.40;;;;;;;9.53;53.04;99019.09;5563848;25;20403;-66
2024/04/13 04:46:51;;;;;;;4.07;2.13;;;;;;;9.43;52.91;99015.47;5562120;25;20162;-66
2024/04/13 04:49:16;;;;;;;4.57;2.00;;;;;;;9.36;53.38;99018.25;5562479;25;19993;-65
2024/04/13 04:51:42;;;;;;;4.35;2.13;;;;;;;9.31;53.44;99016.31;5562398;25;20490;-66
2024/04/13 04:54:10;;;;;;;2.90;2.20;;;;;;;9.37;53.77;99011.91;5562319;25;20003;-66
2024/04/13 04:56:36;;;;;;;3.33;2.03;;;;;;;9.30;53.69;99020.00;5530903;25;20430;-64
2024/04/13 04:59:02;;;;;;;4.10;2.22;;;;;;;9.29;54.32;99023.72;5564306;25;20009;-65
2024/04/13 05:01:27;;;;;;;1.95;1.60;;;;;;;9.22;53.68;99019.59;5530857;25;20015;-66
2024/04/13 05:03:54;;;;;;;2.13;1.83;;;;;;;9.15;53.57;99021.56;5562426;25;20019;-65
2024/04/13 05:06:20;;;;;;;2.22;1.77;;;;;;;9.19;53.71;99022.72;5564023;25;20001;-65
2024/04/13 05:08:47;;;;;;;5.13;2.72;;;;;;;9.12;54.27;99016.75;5562449;25;20033;-64
2024/04/13 05:11:14;;;;;;;3.60;1.92;;;;;;;9.05;54.32;99014.25;5563701;25;20067;-65
2024/04/13 05:13:42;;;;;;;3.70;2.40;;;;;;;9.06;54.32;99011.38;5561922;25;20064;-65
2024/04/13 05:16:08;;;;;;;2.58;1.60;;;;;;;9.15;53.22;99013.63;5563435;25;20000;-66
2024/04/13 05:18:35;;;;;;;2.47;1.90;;;;;;;9.07;53.33;99009.53;5561892;25;20481;-66
2024/04/13 05:21:01;;;;;;;1.70;1.40;;;;;;;9.12;53.26;99006.16;5563655;25;20072;-65
2024/04/13 05:23:27;;;;;;;4.97;2.08;;;;;;;9.12;54.33;99001.72;5563655;25;20009;-65
2024/04/13 05:25:53;;;;;;;2.55;1.52;;;;;;;9.23;52.93;99002.69;5563593;25;20076;-65
2024/04/13 05:28:23;;;;;;;3.25;1.92;;;;;;;9.28;52.82;98998.28;5561833;25;20007;-65
2024/04/13 05:31:00;;;;;;;2.03;1.70;;;;;;;9.22;52.83;98995.78;5561809;25;20009;-66
2024/04/13 05:33:27;;;;;;;4.18;2.20;;;;;;;9.32;52.34;98995.97;5530762;25;19993;-64
2024/04/13 05:35:55;;;;;;;2.92;1.50;;;;;;;9.30;52.30;99001.50;5561587;25;20000;-65
2024/04/13 05:38:22;;;;;;;1.73;1.33;;;;;;;9.22;52.05;99007.16;5563057;25;20048;-65
2024/04/13 05:40:49;;;;;;;3.75;1.33;;;;;;;9.17;52.02;98998.34;5562107;25;20011;-65
2024/04/13 05:43:16;;;;;;;3.35;1.88;;;;;;;9.23;52.84;98997.38;5530143;25;20005;-67
2024/04/13 05:45:43;;;;;;;2.33;1.60;;;;;;;9.24;52.62;98999.81;5562825;25;20009;-65
2024/04/13 05:48:10;;;;;;;6.05;2.55;;;;;;;9.10;52.10;98972.84;5530632;25;20001;-67
2024/04/13 05:50:35;;;;;;;2.70;2.38;;;;;;;9.24;52.27;98994.53;5561203;25;20013;-64
2024/04/13 05:53:01;;;;;;;2.28;1.80;;;;;;;9.29;51.82;98994.63;5563431;25;20031;-64
2024/04/13 05:55:27;;;;;;;4.28;2.55;;;;;;;9.39;52.07;98993.97;5562811;25;20005;-66
2024/04/13 05:57:54;;;;;;;4.65;1.70;;;;;;;9.41;51.53;98991.91;5563197;25;20007;-64
2024/04/13 06:00:21;;;;;;;3.92;1.90;;;;;;;9.53;51.57;98994.47;5532225;25;20457;-65
2024/04/13 06:02:48;;;;;;;4.47;1.80;;;;;;;9.64;51.31;99006.81;5560847;25;20011;-65
2024/04/13 06:05:14;;;;;;;3.33;1.45;;;;;;;9.61;51.24;98996.69;5561151;25;20004;-64
2024/04/13 06:07:40;;;;;;;4.07;1.65;;;;;;;9.69;51.06;98993.66;5561237;25;20350;-65
2024/04/13 06:10:07;;;;;;;2.63;1.98;;;;;;;9.77;50.71;98995.13;5560843;25;20012;-65
2024/04/13 06:12:33;;;;;;;1.92;1.20;;;;;;;9.78;50.46;98997.50;5549803;25;19997;-64
2024/04/13 06:15:00;;;;;;;2.97;1.40;;;;;;;9.81;50.43;98988.28;5525804;25;20037;-66
2024/04/13 06:17:26;;;;;;;3.80;2.65;;;;;;;9.92;50.85;98990.03;5493449;26;20400;-65
2024/04/13 06:19:52;;;;;;;4.15;1.58;;;;;;;9.97;50.26;98995.44;5551009;25;20004;-65
2024/04/13 06:22:23;;;;;;;1.70;1.55;;;;;;;9.97;49.93;98984.84;5561252;25;20015;-66
2024/04/13 06:24:50;;;;;;;2.50;1.40;;;;;;;10.05;49.93;98998.69;5562943;25;20394;-65
2024/04/13 06:27:16;;;;;;;1.95;1.30;;;;;;;10.06;50.19;98992.34;5560954;25;20453;-65
2024/04/13 06:29:49;;;;;;;3.25;1.67;;;;;;;10.23;49.66;98991.28;5562836;25;19997;-64
2024/04/13 06:32:16;;;;;;;2.35;2.10;;;;;;;10.31;49.39;98990.06;5563252;25;19997;-65
2024/04/13 06:34:42;;;;;;;2.85;1.45;;;;;;;10.47;50.07;98980.50;5563078;25;19993;-66
2024/04/13 06:37:08;;;;;;;2.90;2.28;;;;;;;10.60;49.27;98980.09;5530305;25;20007;-65
2024/04/13 06:39:34;;;;;;;2.22;1.33;;;;;;;10.64;48.68;98975.91;5561722;25;20007;-66
2024/04/13 06:42:00;;;;;;;1.60;1.45;;;;;;;10.73;49.28;98986.88;5538711;25;20013;-67
2024/04/13 06:44:26;;;;;;;3.88;1.38;;;;;;;10.70;47.15;98976.75;5542482;25;20001;-65
2024/04/13 06:46:52;;;;;;;2.30;1.40;;;;;;;10.60;48.04;98982.75;5541415;25;20030;-64
2024/04/13 06:49:20;;;;;;;1.58;1.20;;;;;;;10.75;47.78;98982.13;5538966;25;20025;-63
2024/04/13 06:51:46;;;;;;;2.75;1.40;;;;;;;10.88;47.94;98975.63;5511879;25;20005;-63
2024/04/13 06:54:12;;;;;;;2.60;1.50;;;;;;;11.08;47.85;98965.22;5541291;25;20023;-63
2024/04/13 06:56:40;;;;;;;1.80;1.50;;;;;;;11.24;46.50;98978.66;5560695;25;19997;-63
2024/04/13 06:59:07;;;;;;;2.17;1.20;;;;;;;11.25;45.92;98962.47;5560553;25;20020;-63
2024/04/13 07:01:33;;;;;;;5.80;1.70;;;;;;;11.23;45.38;98967.22;5561878;25;20112;-63
2024/04/13 07:03:59;;;;;;;2.55;1.50;;;;;;;11.08;45.93;98969.75;5561939;25;19996;-65
2024/04/13 07:06:26;;;;;;;2.38;1.30;;;;;;;10.86;47.11;98973.25;5559990;25;20081;-63
2024/04/13 07:08:52;;;;;;;3.90;1.50;;;;;;;10.89;46.29;98974.59;5561777;25;20048;-62
2024/04/13 07:11:19;;;;;;;2.42;1.40;;;;;;;10.93;46.24;98973.03;5559899;25;20469;-62
2024/04/13 07:13:46;;;;;;;2.25;1.30;;;;;;;11.08;46.65;98975.03;5561208;25;20399;-63
2024/04/13 07:16:13;;;;;;;2.80;1.40;;;;;;;11.26;46.20;98968.56;5540779;25;20001;-63
2024/04/13 07:18:39;;;;;;;2.30;1.50;;;;;;;11.19;46.58;98968.00;5542176;25;20011;-63
2024/04/13 07:21:04;;;;;;;1.80;1.30;;;;;;;11.08;46.77;98959.94;5544124;25;20006;-64
2024/04/13 07:23:30;;;;;;;1.58;1.38;;;;;;;11.08;47.52;98957.28;5537774;25;20005;-63
2024/04/13 07:26:02;;;;;;;3.20;1.55;;;;;;;11.07;47.60;98955.69;5540942;25;20506;-62
2024/04/13 07:28:29;;;;;;;1.67;1.35;;;;;;;11.10;47.46;98967.66;5516993;25;20009;-62
2024/04/13 07:30:55;;;;;;;3.20;1.70;;;;;;;11.16;47.57;98965.84;5540203;25;20045;-62
2024/04/13 07:33:21;;;;;;;1.30;1.20;;;;;;;11.13;46.91;98953.88;5539485;25;20458;-62
2024/04/13 07:35:48;;;;;;;1.95;1.48;;;;;;;11.19;47.11;98955.53;5541916;25;20005;-63
2024/04/13 07:38:14;;;;;;;2.38;1.50;;;;;;;11.33;47.02;98950.63;5510725;25;20016;-63
2024/04/13 07:40:40;;;;;;;5.35;1.73;;;;;;;11.63;46.93;98958.00;5543137;25;20004;-64
2024/04/13 07:43:06;;;;;;;3.33;1.50;;;;;;;11.88;46.76;98959.25;5561234;25;19997;-64
2024/04/13 07:45:31;;;;;;;3.42;1.60;;;;;;;11.99;46.62;98948.44;5560719;25;19996;-65
2024/04/13 07:47:57;;;;;;;2.92;1.60;;;;;;;12.00;45.85;98943.91;5528364;25;20001;-64
2024/04/13 07:50:23;;;;;;;2.65;1.65;;;;;;;12.12;45.98;98949.84;5545486;25;20009;-64
2024/04/13 07:52:49;;;;;;;8.27;1.73;;;;;;;12.35;46.03;98945.94;5527714;25;19993;-65
2024/04/13 07:55:16;;;;;;;3.17;1.70;;;;;;;12.50;45.58;98951.34;5560492;25;20005;-65
2024/04/13 07:57:41;;;;;;;3.88;1.85;;;;;;;12.62;44.87;98956.44;5521735;26;20016;-65
2024/04/13 08:00:09;;;;;;;3.00;1.90;;;;;;;12.62;44.43;98945.03;5521743;26;19997;-65
2024/04/13 08:02:39;;;;;;;5.88;1.95;;;;;;;12.66;43.72;98946.88;5522242;26;20006;-67
2024/04/13 08:05:08;;;;;;;5.80;1.77;;;;;;;12.67;44.16;98945.00;5559193;25;20001;-67
2024/04/13 08:07:35;;;;;;;4.68;2.20;;;;;;;12.63;44.22;98943.94;5563502;25;20072;-64
2024/04/13 08:10:01;;;;;;;2.70;1.80;;;;;;;12.63;44.06;98950.06;5562608;25;20005;-65
2024/04/13 08:12:30;;;;;;;3.63;1.77;;;;;;;12.68;44.71;98951.94;5562869;25;20377;-73
2024/04/13 08:14:57;;;;;;;3.45;1.50;;;;;;;12.40;44.43;98942.53;5493510;26;20002;-67
2024/04/13 08:17:26;;;;;;;1.88;1.30;;;;;;;12.52;44.78;98940.44;5460604;26;20009;-66
2024/04/13 08:19:53;;;;;;;2.10;1.50;;;;;;;12.36;44.75;98946.78;5523451;26;20494;-65
2024/04/13 08:22:19;;;;;;;6.55;3.53;;;;;;;12.39;45.57;98940.94;5526461;25;20040;-66
2024/04/13 08:24:45;;;;;;;5.95;1.83;;;;;;;12.43;45.36;98929.50;5559771;25;20453;-65
2024/04/13 08:27:11;;;;;;;6.00;2.03;;;;;;;12.53;45.13;98946.56;5561065;25;20089;-65
2024/04/13 08:29:37;;;;;;;3.22;1.80;;;;;;;12.54;45.46;98940.19;5560606;25;20335;-64
2024/04/13 08:32:06;;;;;;;4.97;1.80;;;;;;;12.68;45.03;98943.97;5562082;25;19997;-65
2024/04/13 08:34:32;;;;;;;4.03;1.65;;;;;;;12.84;44.29;98934.94;5560056;25;20047;-64
2024/04/13 08:36:58;;;;;;;4.68;1.52;;;;;;;13.01;44.18;98937.38;5560582;25;20009;-65
2024/04/13 08:39:24;;;;;;;2.97;1.52;;;;;;;13.18;44.11;98939.81;5562226;25;20016;-66
2024/04/13 08:42:03;;;;;;;2.50;1.58;;;;;;;13.32;44.40;98932.09;5500859;25;19993;-64
2024/04/13 08:44:30;;;;;;;4.68;2.08;;;;;;;13.37;43.53;98929.44;5563807;25;20008;-65
2024/04/13 08:46:59;;;;;;;4.57;1.60;;;;;;;13.50;43.60;98930.75;5562469;25;20001;-64
2024/04/13 08:49:27;;;;;;;5.32;2.20;;;;;;;13.52;42.72;98925.97;5564024;25;20004;-64
2024/04/13 08:51:53;;;;;;;2.78;1.83;;;;;;;13.40;42.39;98931.56;5564021;25;20012;-65
2024/04/13 08:54:19;;;;;;;2.45;2.00;;;;;;;13.45;42.25;98930.78;5563761;25;20001;-64
2024/04/13 08:56:47;;;;;;;2.75;2.08;;;;;;;13.79;41.91;98921.13;5564288;25;20008;-63
2024/04/13 08:59:14;;;;;;;2.63;1.63;;;;;;;13.60;42.70;98920.13;5562151;25;20005;-65
2024/04/13 09:01:45;;;;;;;4.55;1.90;;;;;;;13.60;42.27;98923.56;5562341;25;20007;-64
2024/04/13 09:04:11;;;;;;;2.05;1.80;;;;;;;13.71;42.80;98926.25;5531016;25;20029;-64
2024/04/13 09:06:36;;;;;;;5.40;2.00;;;;;;;13.54;42.23;98921.97;5562461;25;20483;-65
2024/04/13 09:09:08;;;;;;;1.67;1.48;;;;;;;13.31;42.66;98922.53;5531042;25;20072;-66
2024/04/13 09:11:37;;;;;;;4.57;1.60;;;;;;;13.18;43.55;98915.84;5562261;25;19996;-65
2024/04/13 09:14:04;;;;;;;1.83;1.40;;;;;;;13.10;43.77;98917.16;5561746;25;20049;-67
2024/04/13 09:16:30;;;;;;;3.05;1.65;;;;;;;13.22;44.21;98922.22;5561589;25;19993;-66
2024/04/13 09:18:56;;;;;;;2.22;1.40;;;;;;;13.26;43.96;98922.53;5563677;25;20009;-66
2024/04/13 09:21:22;;;;;;;1.50;1.40;;;;;;;13.46;42.95;98914.53;5561845;25;20004;-65
2024/04/13 09:23:52;;;;;;;3.92;1.75;;;;;;;13.58;43.22;98920.38;5553040;25;19998;-65
2024/04/13 09:26:17;;;;;;;3.85;2.08;;;;;;;13.74;42.75;98920.38;5524654;26;20013;-66
2024/04/13 09:28:46;;;;;;;3.60;1.90;;;;;;;13.79;42.84;98921.13;5526734;25;20001;-65
2024/04/13 09:31:14;;;;;;;3.05;1.80;;;;;;;13.89;42.97;98912.34;5493791;26;20065;-65
2024/04/13 09:33:40;;;;;;;3.60;1.50;;;;;;;14.10;42.20;98913.06;5526346;25;20474;-64
2024/04/13 09:36:08;;;;;;;2.65;1.63;;;;;;;14.29;42.13;98906.09;5493693;26;20008;-66
2024/04/13 09:38:35;;;;;;;4.50;2.10;;;;;;;14.37;41.90;98910.03;5525833;25;19994;-65
2024/04/13 09:41:02;;;;;;;4.07;1.60;;;;;;;14.18;41.54;98909.84;5525772;26;20069;-66
2024/04/13 09:43:27;;;;;;;3.90;2.28;;;;;;;14.21;42.64;98916.50;5525937;25;19993;-66
2024/04/13 09:46:01;;;;;;;4.90;2.00;;;;;;;14.27;41.71;98904.75;5525642;25;20004;-65
2024/04/13 09:48:28;;;;;;;4.95;2.00;;;;;;;14.51;41.18;98907.56;5526227;25;20447;-63
2024/04/13 09:50:55;;;;;;;4.72;1.50;;;;;;;14.62;40.83;98905.66;5536422;25;19997;-66
2024/04/13 09:53:20;;;;;;;2.97;2.00;;;;;;;14.52;41.08;98901.19;5563379;25;20060;-65
2024/04/13 09:55:47;;;;;;;5.50;2.20;;;;;;;14.35;41.29;98896.16;5562705;25;20005;-65
2024/04/13 09:58:13;;;;;;;5.60;2.10;;;;;;;14.47;41.61;98902.00;5561215;25;20024;-65
2024/04/13 10:00:40;;;;;;;8.13;1.95;;;;;;;14.50;41.10;98900.63;5561474;25;20041;-65
2024/04/13 10:03:06;;;;;;;2.67;1.98;;;;;;;14.46;41.21;98894.25;5561676;25;19996;-65
2024/04/13 10:05:33;;;;;;;2.13;1.50;;;;;;;14.62;41.07;98882.47;5562974;25;19997;-65
2024/04/13 10:07:59;;;;;;;2.75;2.10;;;;;;;14.76;40.83;98883.47;5561571;25;20472;-66
2024/04/13 10:10:26;;;;;;;2.50;1.73;;;;;;;14.83;40.74;98890.34;5561032;25;20077;-64
2024/04/13 10:12:54;;;;;;;4.13;1.90;;;;;;;14.78;40.90;98883.16;5561485;25;19993;-65
2024/04/13 10:15:19;;;;;;;2.78;1.40;;;;;;;14.48;41.15;98876.13;5561236;25;20001;-66
2024/04/13 10:17:46;;;;;;;4.38;1.90;;;;;;;14.51;41.36;98871.06;5561266;25;20420;-66
2024/04/13 10:20:13;;;;;;;1.50;1.40;;;;;;;14.49;41.17;98873.16;5530210;25;20049;-65
2024/04/13 10:22:39;;;;;;;1.90;1.50;;;;;;;14.32;41.90;98873.53;5562837;25;19997;-66
2024/04/13 10:25:08;;;;;;;3.67;2.75;;;;;;;14.26;42.16;98858.63;5562635;25;20136;-63
2024/04/13 10:27:34;;;;;;;5.07;2.13;;;;;;;14.59;41.71;98869.69;5562612;25;20008;-64
2024/04/13 10:30:01;;;;;;;3.15;2.00;;;;;;;14.81;41.56;98855.94;5562778;25;20013;-65
2024/04/13 10:32:31;;;;;;;2.60;1.90;;;;;;;14.98;40.92;98861.69;5563017;25;20003;-65
2024/04/13 10:35:08;;;;;;;3.70;1.80;;;;;;;14.87;40.38;98868.16;5560651;25;20012;-65
2024/04/13 10:37:35;;;;;;;2.90;1.70;;;;;;;14.69;40.97;98856.28;5561348;25;20030;-65
2024/04/13 10:40:03;;;;;;;2.13;1.55;;;;;;;14.63;41.18;98857.38;5560404;25;20158;-63
2024/04/13 10:42:37;;;;;;;5.43;4.07;;;;;;;14.64;41.72;98850.97;5560776;25;20498;-65
2024/04/13 10:45:09;;;;;;;3.47;1.77;;;;;;;14.62;41.42;98858.47;5561995;25;20001;-64
2024/04/13 10:47:38;;;;;;;4.00;2.25;;;;;;;14.54;41.57;98848.38;5560596;25;20005;-68
2024/04/13 10:50:05;;;;;;;2.85;1.92;;;;;;;14.59;41.88;98851.03;5529002;25;20454;-66
2024/04/13 10:52:31;;;;;;;4.45;2.10;;;;;;;14.54;42.36;98859.84;5560129;25;20378;-66
2024/04/13 10:54:58;;;;;;;3.97;2.10;;;;;;;14.52;41.79;98861.97;5561736;25;20013;-65
2024/04/13 10:57:24;;;;;;;3.00;2.10;;;;;;;14.70;41.82;98851.75;5560401;25;19997;-65
2024/04/13 10:59:51;;;;;;;3.30;2.00;;;;;;;14.60;41.35;98839.28;5562376;25;20073;-65
2024/04/13 11:02:17;;;;;;;4.68;2.05;;;;;;;14.83;41.40;98847.66;5560983;25;19996;-66
2024/04/13 11:04:46;;;;;;;2.97;1.58;;;;;;;14.86;41.68;98839.09;5560202;25;20474;-65
2024/04/13 11:07:16;;;;;;;2.95;1.70;;;;;;;14.92;41.29;98841.44;5498978;25;19993;-65
2024/04/13 11:09:43;;;;;;;4.47;1.90;;;;;;;14.94;40.89;98839.31;5561782;25;20000;-66
2024/04/13 11:12:13;;;;;;;3.90;1.95;;;;;;;14.91;41.87;98834.53;5498676;25;20464;-65
2024/04/13 11:14:39;;;;;;;1.75;1.65;;;;;;;14.95;41.97;98835.53;5559947;25;20009;-64
2024/04/13 11:17:05;;;;;;;3.30;1.77;;;;;;;15.21;40.85;98825.44;5561796;25;20525;-64
2024/04/13 11:19:31;;;;;;;5.47;1.95;;;;;;;15.13;40.92;98826.06;5528924;25;19997;-65
2024/04/13 11:21:58;;;;;;;2.45;1.63;;;;;;;15.34;40.65;98826.66;5560329;25;19997;-64
2024/04/13 11:24:25;;;;;;;2.97;1.92;;;;;;;15.56;40.21;98831.53;5528621;25;20068;-66
2024/04/13 11:26:50;;;;;;;2.42;1.90;;;;;;;15.39;40.50;98826.63;5560087;25;20476;-64
2024/04/13 11:29:18;;;;;;;4.97;1.95;;;;;;;15.47;40.74;98825.22;5561801;25;19997;-66
2024/04/13 11:31:44;;;;;;;3.08;1.67;;;;;;;15.46;39.95;98823.59;5560142;25;20033;-65
2024/04/13 11:34:10;;;;;;;2.28;1.55;;;;;;;15.61;39.85;98817.31;5560248;25;20018;-65
2024/04/13 11:36:36;;;;;;;2.33;1.60;;;;;;;15.67;39.61;98808.16;5559419;25;20454;-65
2024/04/13 11:39:02;;;;;;;2.88;1.70;;;;;;;15.43;40.50;98819.63;5558576;25;20044;-64